sensor_id;sensor_type;location;lat;lon;timestamp;temperature;humidity
41668;DHT22;27356;50.920;5.350;2023-08-17T00:01:47;20.20;99.90
41668;DHT22;27356;50.920;5.350;2023-08-17T00:04:13;20.20;99.90
41668;DHT22;27356;50.920;5.350;2023-08-17T00:06:38;20.40;99.90
41668;DHT22;27356;50.920;5.350;2023-08-17T00:09:04;20.40;99.90
41668;DHT22;27356;50.920;5.350;2023-08-17T00:11:30;20.20;99.90
41668;DHT22;27356;50.920;5.350;2023-08-17T00:13:56;20.20;99.90
41668;DHT22;27356;50.920;5.350;2023-08-17T00:16:21;20.20;99.90
41668;DHT22;27356;50.920;5.350;2023-08-17T00:18:49;20.20;99.90
41668;DHT22;27356;50.920;5.350;2023-08-17T00:21:14;20.10;99.90
41668;DHT22;27356;50.920;5.350;2023-08-17T00:23:40;20.10;99.90
41668;DHT22;27356;50.920;5.350;2023-08-17T00:26:06;20.30;99.90
41668;DHT22;27356;50.920;5.350;2023-08-17T00:28:32;20.20;99.90
41668;DHT22;27356;50.920;5.350;2023-08-17T00:30:59;20.20;99.90
41668;DHT22;27356;50.920;5.350;2023-08-17T00:33:25;20.20;99.90
41668;DHT22;27356;50.920;5.350;2023-08-17T00:35:51;20.20;99.90
41668;DHT22;27356;50.920;5.350;2023-08-17T00:38:16;20.20;99.90
41668;DHT22;27356;50.920;5.350;2023-08-17T00:40:42;20.00;99.90
41668;DHT22;27356;50.920;5.350;2023-08-17T00:43:07;20.10;99.90
41668;DHT22;27356;50.920;5.350;2023-08-17T00:45:33;19.90;99.90
41668;DHT22;27356;50.920;5.350;2023-08-17T00:48:00;19.90;99.90
41668;DHT22;27356;50.920;5.350;2023-08-17T00:50:27;20.00;99.90
41668;DHT22;27356;50.920;5.350;2023-08-17T00:52:54;19.90;99.90
41668;DHT22;27356;50.920;5.350;2023-08-17T00:55:21;19.90;99.90
41668;DHT22;27356;50.920;5.350;2023-08-17T00:57:46;19.90;99.90
41668;DHT22;27356;50.920;5.350;2023-08-17T01:00:13;19.90;99.90
41668;DHT22;27356;50.920;5.350;2023-08-17T01:02:42;19.90;99.90
41668;DHT22;27356;50.920;5.350;2023-08-17T01:05:09;19.90;99.90
41668;DHT22;27356;50.920;5.350;2023-08-17T01:07:34;19.90;99.90
41668;DHT22;27356;50.920;5.350;2023-08-17T01:10:01;20.00;99.90
41668;DHT22;27356;50.920;5.350;2023-08-17T01:12:53;19.90;99.90
41668;DHT22;27356;50.920;5.350;2023-08-17T01:15:27;19.80;99.90
41668;DHT22;27356;50.920;5.350;2023-08-17T01:18:14;19.90;99.90
41668;DHT22;27356;50.920;5.350;2023-08-17T01:20:41;19.80;99.90
41668;DHT22;27356;50.920;5.350;2023-08-17T01:23:07;19.90;99.90
41668;DHT22;27356;50.920;5.350;2023-08-17T01:25:33;19.90;99.90
41668;DHT22;27356;50.920;5.350;2023-08-17T01:28:02;19.90;99.90
41668;DHT22;27356;50.920;5.350;2023-08-17T01:30:32;19.80;99.90
41668;DHT22;27356;50.920;5.350;2023-08-17T01:33:04;19.80;99.90
41668;DHT22;27356;50.920;5.350;2023-08-17T01:35:45;19.90;99.90
41668;DHT22;27356;50.920;5.350;2023-08-17T01:38:18;19.90;99.90
41668;DHT22;27356;50.920;5.350;2023-08-17T01:40:47;19.90;99.90
41668;DHT22;27356;50.920;5.350;2023-08-17T01:43:14;19.80;99.90
41668;DHT22;27356;50.920;5.350;2023-08-17T01:45:41;19.80;99.90
41668;DHT22;27356;50.920;5.350;2023-08-17T01:48:07;19.70;99.90
41668;DHT22;27356;50.920;5.350;2023-08-17T01:50:32;19.80;99.90
41668;DHT22;27356;50.920;5.350;2023-08-17T01:52:58;19.80;99.90
41668;DHT22;27356;50.920;5.350;2023-08-17T01:55:24;19.90;99.90
41668;DHT22;27356;50.920;5.350;2023-08-17T01:57:49;19.80;99.90
41668;DHT22;27356;50.920;5.350;2023-08-17T02:00:15;19.80;99.90
41668;DHT22;27356;50.920;5.350;2023-08-17T02:02:41;19.70;99.90
41668;DHT22;27356;50.920;5.350;2023-08-17T02:05:07;19.60;99.90
41668;DHT22;27356;50.920;5.350;2023-08-17T02:07:33;19.70;99.90
41668;DHT22;27356;50.920;5.350;2023-08-17T02:09:59;19.70;99.90
41668;DHT22;27356;50.920;5.350;2023-08-17T02:12:25;19.80;99.90
41668;DHT22;27356;50.920;5.350;2023-08-17T02:14:50;19.90;99.90
41668;DHT22;27356;50.920;5.350;2023-08-17T02:17:16;19.90;99.90
41668;DHT22;27356;50.920;5.350;2023-08-17T02:19:44;19.90;99.90
41668;DHT22;27356;50.920;5.350;2023-08-17T02:22:10;19.90;99.90
41668;DHT22;27356;50.920;5.350;2023-08-17T02:24:35;19.90;99.90
41668;DHT22;27356;50.920;5.350;2023-08-17T02:27:01;20.00;99.90
41668;DHT22;27356;50.920;5.350;2023-08-17T02:29:27;20.00;99.90
41668;DHT22;27356;50.920;5.350;2023-08-17T02:31:52;19.90;99.90
41668;DHT22;27356;50.920;5.350;2023-08-17T02:34:18;19.80;99.90
41668;DHT22;27356;50.920;5.350;2023-08-17T02:36:44;19.80;99.90
41668;DHT22;27356;50.920;5.350;2023-08-17T02:39:09;19.80;99.90
41668;DHT22;27356;50.920;5.350;2023-08-17T02:41:35;19.80;99.90
41668;DHT22;27356;50.920;5.350;2023-08-17T02:44:01;19.80;99.90
41668;DHT22;27356;50.920;5.350;2023-08-17T02:46:27;19.70;99.90
41668;DHT22;27356;50.920;5.350;2023-08-17T02:48:53;19.60;99.90
41668;DHT22;27356;50.920;5.350;2023-08-17T02:51:18;19.80;99.90
41668;DHT22;27356;50.920;5.350;2023-08-17T02:53:44;19.80;99.90
41668;DHT22;27356;50.920;5.350;2023-08-17T02:56:10;19.80;99.90
41668;DHT22;27356;50.920;5.350;2023-08-17T02:58:38;19.70;99.90
41668;DHT22;27356;50.920;5.350;2023-08-17T03:01:07;19.60;99.90
41668;DHT22;27356;50.920;5.350;2023-08-17T03:03:33;19.60;99.90
41668;DHT22;27356;50.920;5.350;2023-08-17T03:05:59;19.60;99.90
41668;DHT22;27356;50.920;5.350;2023-08-17T03:08:25;19.70;99.90
41668;DHT22;27356;50.920;5.350;2023-08-17T03:10:50;19.70;99.90
41668;DHT22;27356;50.920;5.350;2023-08-17T03:13:16;19.80;99.90
41668;DHT22;27356;50.920;5.350;2023-08-17T03:15:41;19.80;99.90
41668;DHT22;27356;50.920;5.350;2023-08-17T03:18:07;19.80;99.90
41668;DHT22;27356;50.920;5.350;2023-08-17T03:20:33;19.70;99.90
41668;DHT22;27356;50.920;5.350;2023-08-17T03:22:58;19.70;99.90
41668;DHT22;27356;50.920;5.350;2023-08-17T03:25:24;19.70;99.90
41668;DHT22;27356;50.920;5.350;2023-08-17T03:27:50;19.60;99.90
41668;DHT22;27356;50.920;5.350;2023-08-17T03:30:15;19.50;99.90
41668;DHT22;27356;50.920;5.350;2023-08-17T03:32:42;19.50;99.90
41668;DHT22;27356;50.920;5.350;2023-08-17T03:35:08;19.60;99.90
41668;DHT22;27356;50.920;5.350;2023-08-17T03:37:33;19.60;99.90
41668;DHT22;27356;50.920;5.350;2023-08-17T03:39:59;19.50;99.90
41668;DHT22;27356;50.920;5.350;2023-08-17T03:42:26;19.50;99.90
41668;DHT22;27356;50.920;5.350;2023-08-17T03:44:52;19.50;99.90
41668;DHT22;27356;50.920;5.350;2023-08-17T03:47:18;19.50;99.90
41668;DHT22;27356;50.920;5.350;2023-08-17T03:49:44;19.30;99.90
41668;DHT22;27356;50.920;5.350;2023-08-17T03:52:10;19.30;99.90
41668;DHT22;27356;50.920;5.350;2023-08-17T03:54:36;19.20;99.90
41668;DHT22;27356;50.920;5.350;2023-08-17T03:57:02;19.40;99.90
41668;DHT22;27356;50.920;5.350;2023-08-17T03:59:27;19.30;99.90
41668;DHT22;27356;50.920;5.350;2023-08-17T04:01:53;19.40;99.90
41668;DHT22;27356;50.920;5.350;2023-08-17T04:04:19;19.30;99.90
41668;DHT22;27356;50.920;5.350;2023-08-17T04:06:45;19.30;99.90
41668;DHT22;27356;50.920;5.350;2023-08-17T04:09:10;19.40;99.90
41668;DHT22;27356;50.920;5.350;2023-08-17T04:11:36;19.30;99.90
41668;DHT22;27356;50.920;5.350;2023-08-17T04:14:03;19.20;99.90
41668;DHT22;27356;50.920;5.350;2023-08-17T04:16:28;19.20;99.90
41668;DHT22;27356;50.920;5.350;2023-08-17T04:18:54;19.10;99.90
41668;DHT22;27356;50.920;5.350;2023-08-17T04:21:20;19.10;99.90
41668;DHT22;27356;50.920;5.350;2023-08-17T04:23:46;19.20;99.90
41668;DHT22;27356;50.920;5.350;2023-08-17T04:26:11;19.20;99.90
41668;DHT22;27356;50.920;5.350;2023-08-17T04:28:37;19.30;99.90
41668;DHT22;27356;50.920;5.350;2023-08-17T04:31:03;19.10;99.90
41668;DHT22;27356;50.920;5.350;2023-08-17T04:33:29;19.00;99.90
41668;DHT22;27356;50.920;5.350;2023-08-17T04:35:55;19.10;99.90
41668;DHT22;27356;50.920;5.350;2023-08-17T04:38:20;19.20;99.90
41668;DHT22;27356;50.920;5.350;2023-08-17T04:40:46;19.10;99.90
41668;DHT22;27356;50.920;5.350;2023-08-17T04:43:12;19.10;99.90
41668;DHT22;27356;50.920;5.350;2023-08-17T04:45:37;19.00;99.90
41668;DHT22;27356;50.920;5.350;2023-08-17T04:48:04;19.00;99.90
41668;DHT22;27356;50.920;5.350;2023-08-17T04:50:29;19.10;99.90
41668;DHT22;27356;50.920;5.350;2023-08-17T04:52:55;19.10;99.90
41668;DHT22;27356;50.920;5.350;2023-08-17T04:55:21;19.00;99.90
41668;DHT22;27356;50.920;5.350;2023-08-17T04:57:46;19.10;99.90
41668;DHT22;27356;50.920;5.350;2023-08-17T05:00:13;18.90;99.90
41668;DHT22;27356;50.920;5.350;2023-08-17T05:02:39;19.00;99.90
41668;DHT22;27356;50.920;5.350;2023-08-17T05:05:06;18.90;99.90
41668;DHT22;27356;50.920;5.350;2023-08-17T05:07:33;19.00;99.90
41668;DHT22;27356;50.920;5.350;2023-08-17T05:09:58;19.10;99.90
41668;DHT22;27356;50.920;5.350;2023-08-17T05:12:24;19.10;99.90
41668;DHT22;27356;50.920;5.350;2023-08-17T05:14:50;19.00;99.90
41668;DHT22;27356;50.920;5.350;2023-08-17T05:17:15;19.00;99.90
41668;DHT22;27356;50.920;5.350;2023-08-17T05:19:41;18.90;99.90
41668;DHT22;27356;50.920;5.350;2023-08-17T05:22:11;19.00;99.90
41668;DHT22;27356;50.920;5.350;2023-08-17T05:24:38;18.90;99.90
41668;DHT22;27356;50.920;5.350;2023-08-17T05:27:04;19.00;99.90
41668;DHT22;27356;50.920;5.350;2023-08-17T05:29:30;19.10;99.90
41668;DHT22;27356;50.920;5.350;2023-08-17T05:31:57;18.80;99.90
41668;DHT22;27356;50.920;5.350;2023-08-17T05:34:23;18.80;99.90
41668;DHT22;27356;50.920;5.350;2023-08-17T05:36:49;18.80;99.90
41668;DHT22;27356;50.920;5.350;2023-08-17T05:39:15;18.90;99.90
41668;DHT22;27356;50.920;5.350;2023-08-17T05:41:40;18.90;99.90
41668;DHT22;27356;50.920;5.350;2023-08-17T05:44:06;18.80;99.90
41668;DHT22;27356;50.920;5.350;2023-08-17T05:46:33;18.80;99.90
41668;DHT22;27356;50.920;5.350;2023-08-17T05:48:59;18.80;99.90
41668;DHT22;27356;50.920;5.350;2023-08-17T05:51:25;18.60;99.90
41668;DHT22;27356;50.920;5.350;2023-08-17T05:53:51;18.80;99.90
41668;DHT22;27356;50.920;5.350;2023-08-17T05:56:16;18.80;99.90
41668;DHT22;27356;50.920;5.350;2023-08-17T05:58:42;18.80;99.90
41668;DHT22;27356;50.920;5.350;2023-08-17T06:01:09;18.80;99.90
41668;DHT22;27356;50.920;5.350;2023-08-17T06:03:36;18.80;99.90
41668;DHT22;27356;50.920;5.350;2023-08-17T06:06:02;18.80;99.90
41668;DHT22;27356;50.920;5.350;2023-08-17T06:08:28;18.80;99.90
41668;DHT22;27356;50.920;5.350;2023-08-17T06:10:54;18.70;99.90
41668;DHT22;27356;50.920;5.350;2023-08-17T06:13:20;18.60;99.90
41668;DHT22;27356;50.920;5.350;2023-08-17T06:15:46;18.60;99.90
41668;DHT22;27356;50.920;5.350;2023-08-17T06:18:12;18.80;99.90
41668;DHT22;27356;50.920;5.350;2023-08-17T06:20:37;18.90;99.90
41668;DHT22;27356;50.920;5.350;2023-08-17T06:23:03;19.00;99.90
41668;DHT22;27356;50.920;5.350;2023-08-17T06:25:29;19.00;99.90
41668;DHT22;27356;50.920;5.350;2023-08-17T06:27:55;19.10;99.90
41668;DHT22;27356;50.920;5.350;2023-08-17T06:30:21;19.00;99.90
41668;DHT22;27356;50.920;5.350;2023-08-17T06:32:47;19.00;99.90
41668;DHT22;27356;50.920;5.350;2023-08-17T06:35:12;19.20;99.90
41668;DHT22;27356;50.920;5.350;2023-08-17T06:37:38;19.20;99.90
41668;DHT22;27356;50.920;5.350;2023-08-17T06:40:04;19.20;99.90
41668;DHT22;27356;50.920;5.350;2023-08-17T06:42:34;19.00;99.90
41668;DHT22;27356;50.920;5.350;2023-08-17T06:45:00;19.10;99.90
41668;DHT22;27356;50.920;5.350;2023-08-17T06:47:26;19.20;99.90
41668;DHT22;27356;50.920;5.350;2023-08-17T06:49:52;19.20;99.90
41668;DHT22;27356;50.920;5.350;2023-08-17T06:52:17;19.40;99.90
41668;DHT22;27356;50.920;5.350;2023-08-17T06:54:43;19.20;99.90
41668;DHT22;27356;50.920;5.350;2023-08-17T06:57:08;19.10;99.90
41668;DHT22;27356;50.920;5.350;2023-08-17T06:59:34;19.20;99.90
41668;DHT22;27356;50.920;5.350;2023-08-17T07:02:00;19.20;99.90
41668;DHT22;27356;50.920;5.350;2023-08-17T07:04:26;19.10;99.90
41668;DHT22;27356;50.920;5.350;2023-08-17T07:06:52;19.20;99.90
41668;DHT22;27356;50.920;5.350;2023-08-17T07:09:17;19.40;99.90
41668;DHT22;27356;50.920;5.350;2023-08-17T07:11:44;19.40;99.90
41668;DHT22;27356;50.920;5.350;2023-08-17T07:14:09;19.50;99.90
41668;DHT22;27356;50.920;5.350;2023-08-17T07:16:35;19.40;99.90
41668;DHT22;27356;50.920;5.350;2023-08-17T07:19:01;19.40;99.90
41668;DHT22;27356;50.920;5.350;2023-08-17T07:21:27;19.50;99.90
41668;DHT22;27356;50.920;5.350;2023-08-17T07:23:54;19.40;99.90
41668;DHT22;27356;50.920;5.350;2023-08-17T07:26:20;19.30;99.90
41668;DHT22;27356;50.920;5.350;2023-08-17T07:28:46;19.40;99.90
41668;DHT22;27356;50.920;5.350;2023-08-17T07:31:12;19.40;99.90
41668;DHT22;27356;50.920;5.350;2023-08-17T07:33:38;19.60;99.90
41668;DHT22;27356;50.920;5.350;2023-08-17T07:36:04;19.50;99.90
41668;DHT22;27356;50.920;5.350;2023-08-17T07:38:30;19.30;99.90
41668;DHT22;27356;50.920;5.350;2023-08-17T07:40:56;19.50;99.90
41668;DHT22;27356;50.920;5.350;2023-08-17T07:43:21;19.50;99.90
41668;DHT22;27356;50.920;5.350;2023-08-17T07:45:56;19.80;99.90
41668;DHT22;27356;50.920;5.350;2023-08-17T07:48:22;20.00;99.90
41668;DHT22;27356;50.920;5.350;2023-08-17T07:50:51;20.00;99.90
41668;DHT22;27356;50.920;5.350;2023-08-17T07:53:18;20.00;99.90
41668;DHT22;27356;50.920;5.350;2023-08-17T07:55:44;20.10;99.90
41668;DHT22;27356;50.920;5.350;2023-08-17T07:58:09;20.30;99.90
41668;DHT22;27356;50.920;5.350;2023-08-17T08:00:35;20.30;99.90
41668;DHT22;27356;50.920;5.350;2023-08-17T08:03:01;20.30;99.90
41668;DHT22;27356;50.920;5.350;2023-08-17T08:05:27;20.30;99.90
41668;DHT22;27356;50.920;5.350;2023-08-17T08:07:53;20.20;99.90
41668;DHT22;27356;50.920;5.350;2023-08-17T08:10:18;20.40;99.90
41668;DHT22;27356;50.920;5.350;2023-08-17T08:12:44;20.30;99.90
41668;DHT22;27356;50.920;5.350;2023-08-17T08:15:10;20.50;99.90
41668;DHT22;27356;50.920;5.350;2023-08-17T08:17:36;20.40;99.90
41668;DHT22;27356;50.920;5.350;2023-08-17T08:20:04;20.60;99.90
41668;DHT22;27356;50.920;5.350;2023-08-17T08:22:33;20.70;99.90
41668;DHT22;27356;50.920;5.350;2023-08-17T08:24:59;20.80;99.90
41668;DHT22;27356;50.920;5.350;2023-08-17T08:27:25;20.90;99.90
41668;DHT22;27356;50.920;5.350;2023-08-17T08:29:51;20.70;99.90
41668;DHT22;27356;50.920;5.350;2023-08-17T08:32:16;21.10;99.90
41668;DHT22;27356;50.920;5.350;2023-08-17T08:34:42;21.20;99.90
41668;DHT22;27356;50.920;5.350;2023-08-17T08:37:08;21.20;99.90
41668;DHT22;27356;50.920;5.350;2023-08-17T08:39:48;21.40;99.90
41668;DHT22;27356;50.920;5.350;2023-08-17T08:42:15;21.50;99.90
41668;DHT22;27356;50.920;5.350;2023-08-17T08:44:41;21.40;99.90
41668;DHT22;27356;50.920;5.350;2023-08-17T08:47:06;21.40;99.90
41668;DHT22;27356;50.920;5.350;2023-08-17T08:49:34;21.50;99.90
41668;DHT22;27356;50.920;5.350;2023-08-17T08:52:07;21.50;99.90
41668;DHT22;27356;50.920;5.350;2023-08-17T08:54:35;21.40;99.90
41668;DHT22;27356;50.920;5.350;2023-08-17T08:57:04;21.40;99.90
41668;DHT22;27356;50.920;5.350;2023-08-17T08:59:33;21.60;99.90
41668;DHT22;27356;50.920;5.350;2023-08-17T09:01:59;21.20;99.90
41668;DHT22;27356;50.920;5.350;2023-08-17T09:04:25;21.20;99.90
41668;DHT22;27356;50.920;5.350;2023-08-17T09:06:51;20.90;99.90
41668;DHT22;27356;50.920;5.350;2023-08-17T09:09:18;20.80;99.90
41668;DHT22;27356;50.920;5.350;2023-08-17T09:11:44;21.00;99.90
41668;DHT22;27356;50.920;5.350;2023-08-17T09:14:09;20.90;99.90
41668;DHT22;27356;50.920;5.350;2023-08-17T09:16:35;20.80;99.90
41668;DHT22;27356;50.920;5.350;2023-08-17T09:19:01;20.90;99.90
41668;DHT22;27356;50.920;5.350;2023-08-17T09:21:31;21.10;99.90
41668;DHT22;27356;50.920;5.350;2023-08-17T09:23:57;21.20;99.90
41668;DHT22;27356;50.920;5.350;2023-08-17T09:26:23;21.60;99.90
41668;DHT22;27356;50.920;5.350;2023-08-17T09:28:52;21.60;99.90
41668;DHT22;27356;50.920;5.350;2023-08-17T09:31:20;21.90;99.90
41668;DHT22;27356;50.920;5.350;2023-08-17T09:33:52;22.10;99.90
41668;DHT22;27356;50.920;5.350;2023-08-17T09:36:22;22.20;99.90
41668;DHT22;27356;50.920;5.350;2023-08-17T09:38:48;22.20;99.90
41668;DHT22;27356;50.920;5.350;2023-08-17T09:41:18;22.10;99.90
41668;DHT22;27356;50.920;5.350;2023-08-17T09:43:45;22.00;99.90
41668;DHT22;27356;50.920;5.350;2023-08-17T09:46:11;22.10;99.90
41668;DHT22;27356;50.920;5.350;2023-08-17T09:48:37;22.40;99.90
41668;DHT22;27356;50.920;5.350;2023-08-17T09:51:03;22.40;99.90
41668;DHT22;27356;50.920;5.350;2023-08-17T09:53:35;22.40;99.90
41668;DHT22;27356;50.920;5.350;2023-08-17T09:56:02;22.70;99.90
41668;DHT22;27356;50.920;5.350;2023-08-17T09:58:29;22.50;99.90
41668;DHT22;27356;50.920;5.350;2023-08-17T10:00:55;22.70;99.90
41668;DHT22;27356;50.920;5.350;2023-08-17T10:03:22;22.70;99.90
41668;DHT22;27356;50.920;5.350;2023-08-17T10:05:53;22.80;99.90
41668;DHT22;27356;50.920;5.350;2023-08-17T10:08:20;22.50;99.90
41668;DHT22;27356;50.920;5.350;2023-08-17T10:10:47;22.50;99.90
41668;DHT22;27356;50.920;5.350;2023-08-17T10:13:42;22.50;99.90
41668;DHT22;27356;50.920;5.350;2023-08-17T10:16:19;22.60;99.90
41668;DHT22;27356;50.920;5.350;2023-08-17T10:19:04;22.70;99.90
41668;DHT22;27356;50.920;5.350;2023-08-17T10:21:39;22.60;99.90
41668;DHT22;27356;50.920;5.350;2023-08-17T10:24:06;22.70;99.90
41668;DHT22;27356;50.920;5.350;2023-08-17T10:26:33;22.70;99.90
41668;DHT22;27356;50.920;5.350;2023-08-17T10:28:59;22.70;99.90
41668;DHT22;27356;50.920;5.350;2023-08-17T10:31:28;23.00;99.90
41668;DHT22;27356;50.920;5.350;2023-08-17T10:33:55;23.00;99.90
41668;DHT22;27356;50.920;5.350;2023-08-17T10:36:22;22.80;99.90
41668;DHT22;27356;50.920;5.350;2023-08-17T10:39:22;23.00;99.90
41668;DHT22;27356;50.920;5.350;2023-08-17T10:41:50;23.10;99.90
41668;DHT22;27356;50.920;5.350;2023-08-17T10:44:18;23.20;99.90
41668;DHT22;27356;50.920;5.350;2023-08-17T10:47:25;23.10;99.90
41668;DHT22;27356;50.920;5.350;2023-08-17T10:50:03;22.90;99.90
41668;DHT22;27356;50.920;5.350;2023-08-17T10:52:32;22.70;99.90
41668;DHT22;27356;50.920;5.350;2023-08-17T10:55:03;22.60;99.90
41668;DHT22;27356;50.920;5.350;2023-08-17T10:57:46;22.30;99.90
41668;DHT22;27356;50.920;5.350;2023-08-17T11:03:05;22.50;99.90
41668;DHT22;27356;50.920;5.350;2023-08-17T11:05:51;22.50;99.90
41668;DHT22;27356;50.920;5.350;2023-08-17T11:08:40;22.50;99.90
41668;DHT22;27356;50.920;5.350;2023-08-17T11:11:16;22.70;99.90
41668;DHT22;27356;50.920;5.350;2023-08-17T11:13:43;22.90;99.90
41668;DHT22;27356;50.920;5.350;2023-08-17T11:16:11;23.00;99.90
41668;DHT22;27356;50.920;5.350;2023-08-17T11:18:37;22.80;99.90
41668;DHT22;27356;50.920;5.350;2023-08-17T11:21:07;22.90;99.90
41668;DHT22;27356;50.920;5.350;2023-08-17T11:23:34;22.80;99.90
41668;DHT22;27356;50.920;5.350;2023-08-17T11:26:00;22.70;99.90
41668;DHT22;27356;50.920;5.350;2023-08-17T11:28:26;22.80;99.90
41668;DHT22;27356;50.920;5.350;2023-08-17T11:31:22;23.00;99.90
41668;DHT22;27356;50.920;5.350;2023-08-17T11:33:47;23.20;99.90
41668;DHT22;27356;50.920;5.350;2023-08-17T11:36:13;23.30;99.90
41668;DHT22;27356;50.920;5.350;2023-08-17T11:38:41;23.60;99.90
41668;DHT22;27356;50.920;5.350;2023-08-17T11:41:07;23.20;99.90
41668;DHT22;27356;50.920;5.350;2023-08-17T11:43:35;23.00;99.90
41668;DHT22;27356;50.920;5.350;2023-08-17T11:46:02;23.00;99.90
41668;DHT22;27356;50.920;5.350;2023-08-17T11:48:28;23.10;99.90
41668;DHT22;27356;50.920;5.350;2023-08-17T11:50:54;22.80;99.90
41668;DHT22;27356;50.920;5.350;2023-08-17T11:53:21;22.70;99.90
41668;DHT22;27356;50.920;5.350;2023-08-17T11:55:47;22.70;99.90
41668;DHT22;27356;50.920;5.350;2023-08-17T11:58:13;22.80;99.90
41668;DHT22;27356;50.920;5.350;2023-08-17T12:00:43;22.90;99.90
41668;DHT22;27356;50.920;5.350;2023-08-17T12:03:15;23.00;99.90
41668;DHT22;27356;50.920;5.350;2023-08-17T12:05:42;23.10;99.90
41668;DHT22;27356;50.920;5.350;2023-08-17T12:08:09;22.90;99.90
41668;DHT22;27356;50.920;5.350;2023-08-17T12:10:37;22.70;99.90
41668;DHT22;27356;50.920;5.350;2023-08-17T12:13:03;22.90;99.90
41668;DHT22;27356;50.920;5.350;2023-08-17T12:15:33;23.10;99.90
41668;DHT22;27356;50.920;5.350;2023-08-17T12:18:01;23.00;99.90
41668;DHT22;27356;50.920;5.350;2023-08-17T12:20:27;23.10;99.90
41668;DHT22;27356;50.920;5.350;2023-08-17T12:22:53;23.10;99.90
41668;DHT22;27356;50.920;5.350;2023-08-17T12:25:22;23.00;99.90
41668;DHT22;27356;50.920;5.350;2023-08-17T12:27:48;23.10;99.90
41668;DHT22;27356;50.920;5.350;2023-08-17T12:30:27;23.20;99.90
41668;DHT22;27356;50.920;5.350;2023-08-17T12:32:53;23.20;99.90
41668;DHT22;27356;50.920;5.350;2023-08-17T12:35:19;23.20;99.90
41668;DHT22;27356;50.920;5.350;2023-08-17T12:37:47;23.20;99.90
41668;DHT22;27356;50.920;5.350;2023-08-17T12:40:14;23.20;99.90
41668;DHT22;27356;50.920;5.350;2023-08-17T12:42:41;23.50;99.90
41668;DHT22;27356;50.920;5.350;2023-08-17T12:45:07;23.60;99.90
41668;DHT22;27356;50.920;5.350;2023-08-17T12:47:37;23.70;99.90
41668;DHT22;27356;50.920;5.350;2023-08-17T12:50:05;23.60;99.90
41668;DHT22;27356;50.920;5.350;2023-08-17T12:52:31;23.80;99.90
41668;DHT22;27356;50.920;5.350;2023-08-17T12:55:41;23.80;99.90
41668;DHT22;27356;50.920;5.350;2023-08-17T12:58:10;23.80;99.90
41668;DHT22;27356;50.920;5.350;2023-08-17T13:00:36;23.90;99.90
41668;DHT22;27356;50.920;5.350;2023-08-17T13:03:01;24.10;99.90
41668;DHT22;27356;50.920;5.350;2023-08-17T13:05:27;24.30;99.90
41668;DHT22;27356;50.920;5.350;2023-08-17T13:07:53;24.30;99.90
41668;DHT22;27356;50.920;5.350;2023-08-17T13:10:19;24.10;99.90
41668;DHT22;27356;50.920;5.350;2023-08-17T13:12:44;24.20;99.90
41668;DHT22;27356;50.920;5.350;2023-08-17T13:15:13;24.50;99.90
41668;DHT22;27356;50.920;5.350;2023-08-17T13:17:38;24.60;99.90
41668;DHT22;27356;50.920;5.350;2023-08-17T13:20:05;24.50;99.90
41668;DHT22;27356;50.920;5.350;2023-08-17T13:22:32;24.10;99.90
41668;DHT22;27356;50.920;5.350;2023-08-17T13:24:58;24.00;99.90
41668;DHT22;27356;50.920;5.350;2023-08-17T13:27:27;24.30;99.90
41668;DHT22;27356;50.920;5.350;2023-08-17T13:29:52;24.60;99.90
41668;DHT22;27356;50.920;5.350;2023-08-17T13:32:18;24.30;99.90
41668;DHT22;27356;50.920;5.350;2023-08-17T13:34:43;24.20;99.90
41668;DHT22;27356;50.920;5.350;2023-08-17T13:37:09;24.10;99.90
41668;DHT22;27356;50.920;5.350;2023-08-17T13:39:35;24.20;99.90
41668;DHT22;27356;50.920;5.350;2023-08-17T13:42:00;24.10;99.90
41668;DHT22;27356;50.920;5.350;2023-08-17T13:44:26;24.10;99.90
41668;DHT22;27356;50.920;5.350;2023-08-17T13:46:52;24.00;99.90
41668;DHT22;27356;50.920;5.350;2023-08-17T13:49:17;23.90;99.90
41668;DHT22;27356;50.920;5.350;2023-08-17T13:51:43;23.70;99.90
41668;DHT22;27356;50.920;5.350;2023-08-17T13:54:08;23.80;99.90
41668;DHT22;27356;50.920;5.350;2023-08-17T13:56:34;23.70;99.90
41668;DHT22;27356;50.920;5.350;2023-08-17T13:59:00;23.70;99.90
41668;DHT22;27356;50.920;5.350;2023-08-17T14:01:26;23.70;99.90
41668;DHT22;27356;50.920;5.350;2023-08-17T14:03:51;23.90;99.90
41668;DHT22;27356;50.920;5.350;2023-08-17T14:06:17;23.80;99.90
41668;DHT22;27356;50.920;5.350;2023-08-17T14:08:43;23.70;99.90
41668;DHT22;27356;50.920;5.350;2023-08-17T14:11:23;23.70;99.90
41668;DHT22;27356;50.920;5.350;2023-08-17T14:13:57;23.40;99.90
41668;DHT22;27356;50.920;5.350;2023-08-17T14:16:22;23.40;99.90
41668;DHT22;27356;50.920;5.350;2023-08-17T14:18:48;23.40;99.90
41668;DHT22;27356;50.920;5.350;2023-08-17T14:21:14;23.30;99.90
41668;DHT22;27356;50.920;5.350;2023-08-17T14:23:39;23.10;99.90
41668;DHT22;27356;50.920;5.350;2023-08-17T14:26:05;23.20;99.90
41668;DHT22;27356;50.920;5.350;2023-08-17T14:28:31;23.30;99.90
41668;DHT22;27356;50.920;5.350;2023-08-17T14:30:57;23.50;99.90
41668;DHT22;27356;50.920;5.350;2023-08-17T14:33:23;23.60;99.90
41668;DHT22;27356;50.920;5.350;2023-08-17T14:35:49;23.60;99.90
41668;DHT22;27356;50.920;5.350;2023-08-17T14:38:15;23.50;99.90
41668;DHT22;27356;50.920;5.350;2023-08-17T14:40:45;23.60;99.90
41668;DHT22;27356;50.920;5.350;2023-08-17T14:43:12;23.60;99.90
41668;DHT22;27356;50.920;5.350;2023-08-17T14:45:48;23.70;99.90
41668;DHT22;27356;50.920;5.350;2023-08-17T14:48:14;23.70;99.90
41668;DHT22;27356;50.920;5.350;2023-08-17T14:50:39;23.90;99.90
41668;DHT22;27356;50.920;5.350;2023-08-17T14:53:05;23.80;99.90
41668;DHT22;27356;50.920;5.350;2023-08-17T14:55:33;24.10;99.90
41668;DHT22;27356;50.920;5.350;2023-08-17T14:57:59;24.00;99.90
41668;DHT22;27356;50.920;5.350;2023-08-17T15:00:26;24.00;99.90
41668;DHT22;27356;50.920;5.350;2023-08-17T15:02:55;24.00;99.90
41668;DHT22;27356;50.920;5.350;2023-08-17T15:05:21;23.80;99.90
41668;DHT22;27356;50.920;5.350;2023-08-17T15:07:47;23.70;99.90
41668;DHT22;27356;50.920;5.350;2023-08-17T15:10:12;23.90;99.90
41668;DHT22;27356;50.920;5.350;2023-08-17T15:12:38;23.80;99.90
41668;DHT22;27356;50.920;5.350;2023-08-17T15:15:04;23.70;99.90
41668;DHT22;27356;50.920;5.350;2023-08-17T15:17:30;23.70;99.90
41668;DHT22;27356;50.920;5.350;2023-08-17T15:19:57;23.60;99.90
41668;DHT22;27356;50.920;5.350;2023-08-17T15:22:23;23.50;99.90
41668;DHT22;27356;50.920;5.350;2023-08-17T15:24:48;23.40;99.90
41668;DHT22;27356;50.920;5.350;2023-08-17T15:27:14;23.60;99.90
41668;DHT22;27356;50.920;5.350;2023-08-17T15:29:40;23.60;99.90
41668;DHT22;27356;50.920;5.350;2023-08-17T15:32:06;23.80;99.90
41668;DHT22;27356;50.920;5.350;2023-08-17T15:34:32;24.10;99.90